sensor_id;sensor_type;location;lat;lon;timestamp;P1;durP1;ratioP1;P2;durP2;ratioP2
8337;SDS011;4206;48.634;9.516;2022-09-03T00:01:26;1.20;;;0.80;;
8337;SDS011;4206;48.634;9.516;2022-09-03T00:04:18;1.70;;;0.60;;
8337;SDS011;4206;48.634;9.516;2022-09-03T00:06:57;4.03;;;0.80;;
8337;SDS011;4206;48.634;9.516;2022-09-03T00:09:30;1.93;;;0.97;;
8337;SDS011;4206;48.634;9.516;2022-09-03T00:12:11;0.80;;;0.70;;
8337;SDS011;4206;48.634;9.516;2022-09-03T00:17:15;1.20;;;0.80;;
8337;SDS011;4206;48.634;9.516;2022-09-03T00:19:45;1.40;;;0.83;;
8337;SDS011;4206;48.634;9.516;2022-09-03T00:22:21;0.93;;;0.80;;
8337;SDS011;4206;48.634;9.516;2022-09-03T00:24:52;1.87;;;1.03;;
8337;SDS011;4206;48.634;9.516;2022-09-03T00:27:19;1.20;;;0.60;;
8337;SDS011;4206;48.634;9.516;2022-09-03T00:29:51;2.63;;;0.80;;
8337;SDS011;4206;48.634;9.516;2022-09-03T00:32:33;1.37;;;0.77;;
8337;SDS011;4206;48.634;9.516;2022-09-03T00:35:05;0.97;;;0.60;;
8337;SDS011;4206;48.634;9.516;2022-09-03T00:37:37;1.73;;;1.10;;
8337;SDS011;4206;48.634;9.516;2022-09-03T00:40:04;0.93;;;0.70;;
8337;SDS011;4206;48.634;9.516;2022-09-03T00:45:17;0.73;;;0.73;;
8337;SDS011;4206;48.634;9.516;2022-09-03T00:50:50;0.87;;;0.80;;
8337;SDS011;4206;48.634;9.516;2022-09-03T01:01:27;1.27;;;0.60;;
8337;SDS011;4206;48.634;9.516;2022-09-03T01:07:04;1.93;;;1.20;;
8337;SDS011;4206;48.634;9.516;2022-09-03T01:09:52;2.43;;;0.80;;
8337;SDS011;4206;48.634;9.516;2022-09-03T01:33:49;2.80;;;1.00;;
8337;SDS011;4206;48.634;9.516;2022-09-03T01:39:02;1.50;;;1.07;;
8337;SDS011;4206;48.634;9.516;2022-09-03T01:53:02;1.80;;;1.10;;
8337;SDS011;4206;48.634;9.516;2022-09-03T02:01:04;2.43;;;1.00;;
8337;SDS011;4206;48.634;9.516;2022-09-03T02:03:38;2.50;;;0.87;;
8337;SDS011;4206;48.634;9.516;2022-09-03T02:06:07;1.83;;;1.00;;
8337;SDS011;4206;48.634;9.516;2022-09-03T02:08:34;1.77;;;1.10;;
8337;SDS011;4206;48.634;9.516;2022-09-03T02:11:00;1.30;;;1.03;;
8337;SDS011;4206;48.634;9.516;2022-09-03T02:13:29;1.37;;;1.10;;
8337;SDS011;4206;48.634;9.516;2022-09-03T02:16:01;2.33;;;0.83;;
8337;SDS011;4206;48.634;9.516;2022-09-03T02:18:36;3.50;;;0.97;;
8337;SDS011;4206;48.634;9.516;2022-09-03T02:21:06;1.60;;;1.00;;
8337;SDS011;4206;48.634;9.516;2022-09-03T02:23:34;3.80;;;1.00;;
8337;SDS011;4206;48.634;9.516;2022-09-03T02:26:03;1.57;;;0.83;;
8337;SDS011;4206;48.634;9.516;2022-09-03T02:28:29;2.10;;;1.00;;
8337;SDS011;4206;48.634;9.516;2022-09-03T02:30:56;1.73;;;0.80;;
8337;SDS011;4206;48.634;9.516;2022-09-03T02:33:22;1.10;;;0.90;;
8337;SDS011;4206;48.634;9.516;2022-09-03T02:35:48;4.93;;;1.60;;
8337;SDS011;4206;48.634;9.516;2022-09-03T02:38:17;1.13;;;1.03;;
8337;SDS011;4206;48.634;9.516;2022-09-03T02:40:45;3.67;;;0.97;;
8337;SDS011;4206;48.634;9.516;2022-09-03T02:43:13;1.10;;;0.90;;
8337;SDS011;4206;48.634;9.516;2022-09-03T02:45:56;1.60;;;1.30;;
8337;SDS011;4206;48.634;9.516;2022-09-03T02:48:25;1.37;;;1.10;;
8337;SDS011;4206;48.634;9.516;2022-09-03T02:50:51;1.27;;;1.13;;
8337;SDS011;4206;48.634;9.516;2022-09-03T02:53:17;2.17;;;1.07;;
8337;SDS011;4206;48.634;9.516;2022-09-03T02:55:43;1.10;;;1.00;;
8337;SDS011;4206;48.634;9.516;2022-09-03T02:58:09;1.43;;;1.17;;
8337;SDS011;4206;48.634;9.516;2022-09-03T03:00:35;2.67;;;1.07;;
8337;SDS011;4206;48.634;9.516;2022-09-03T03:03:02;1.73;;;1.37;;
8337;SDS011;4206;48.634;9.516;2022-09-03T03:08:11;1.60;;;1.00;;
8337;SDS011;4206;48.634;9.516;2022-09-03T03:10:39;2.53;;;1.27;;
8337;SDS011;4206;48.634;9.516;2022-09-03T03:13:07;1.60;;;1.33;;
8337;SDS011;4206;48.634;9.516;2022-09-03T03:15:32;1.90;;;1.00;;
8337;SDS011;4206;48.634;9.516;2022-09-03T03:17:58;1.17;;;1.07;;
8337;SDS011;4206;48.634;9.516;2022-09-03T03:20:24;2.00;;;1.00;;
8337;SDS011;4206;48.634;9.516;2022-09-03T03:22:50;4.60;;;1.43;;
8337;SDS011;4206;48.634;9.516;2022-09-03T03:25:15;1.20;;;0.97;;
8337;SDS011;4206;48.634;9.516;2022-09-03T03:27:41;2.63;;;1.10;;
8337;SDS011;4206;48.634;9.516;2022-09-03T03:30:07;1.63;;;1.30;;
8337;SDS011;4206;48.634;9.516;2022-09-03T03:32:35;2.43;;;1.20;;
8337;SDS011;4206;48.634;9.516;2022-09-03T03:35:01;4.37;;;1.17;;
8337;SDS011;4206;48.634;9.516;2022-09-03T03:37:27;1.97;;;1.00;;
8337;SDS011;4206;48.634;9.516;2022-09-03T03:39:53;1.07;;;0.97;;
8337;SDS011;4206;48.634;9.516;2022-09-03T03:42:18;4.53;;;1.40;;
8337;SDS011;4206;48.634;9.516;2022-09-03T03:44:44;1.20;;;1.10;;
8337;SDS011;4206;48.634;9.516;2022-09-03T03:47:10;1.57;;;1.37;;
8337;SDS011;4206;48.634;9.516;2022-09-03T03:49:36;6.40;;;1.43;;
8337;SDS011;4206;48.634;9.516;2022-09-03T03:52:02;1.77;;;1.47;;
8337;SDS011;4206;48.634;9.516;2022-09-03T03:54:28;3.00;;;1.50;;
8337;SDS011;4206;48.634;9.516;2022-09-03T03:56:54;1.63;;;1.53;;
8337;SDS011;4206;48.634;9.516;2022-09-03T03:59:20;8.20;;;1.77;;
8337;SDS011;4206;48.634;9.516;2022-09-03T04:01:46;1.83;;;1.40;;
8337;SDS011;4206;48.634;9.516;2022-09-03T04:04:15;2.30;;;1.40;;
8337;SDS011;4206;48.634;9.516;2022-09-03T04:06:41;3.33;;;1.37;;
8337;SDS011;4206;48.634;9.516;2022-09-03T04:09:06;3.80;;;1.53;;
8337;SDS011;4206;48.634;9.516;2022-09-03T04:11:32;1.80;;;1.70;;
8337;SDS011;4206;48.634;9.516;2022-09-03T04:13:58;3.07;;;1.80;;
8337;SDS011;4206;48.634;9.516;2022-09-03T04:16:24;2.30;;;1.50;;
8337;SDS011;4206;48.634;9.516;2022-09-03T04:18:51;2.87;;;1.43;;
8337;SDS011;4206;48.634;9.516;2022-09-03T04:21:19;2.70;;;1.47;;
8337;SDS011;4206;48.634;9.516;2022-09-03T04:23:46;1.90;;;1.33;;
8337;SDS011;4206;48.634;9.516;2022-09-03T04:26:15;1.80;;;1.60;;
8337;SDS011;4206;48.634;9.516;2022-09-03T04:28:42;3.73;;;1.40;;
8337;SDS011;4206;48.634;9.516;2022-09-03T04:31:10;4.40;;;1.70;;
8337;SDS011;4206;48.634;9.516;2022-09-03T04:33:37;1.50;;;1.30;;
8337;SDS011;4206;48.634;9.516;2022-09-03T04:38:31;3.30;;;1.73;;
8337;SDS011;4206;48.634;9.516;2022-09-03T04:40:58;1.93;;;1.60;;
8337;SDS011;4206;48.634;9.516;2022-09-03T04:43:24;4.20;;;1.73;;
8337;SDS011;4206;48.634;9.516;2022-09-03T04:45:51;1.67;;;1.40;;
8337;SDS011;4206;48.634;9.516;2022-09-03T04:48:19;1.60;;;1.13;;
8337;SDS011;4206;48.634;9.516;2022-09-03T04:50:45;1.83;;;1.53;;
8337;SDS011;4206;48.634;9.516;2022-09-03T04:53:11;1.73;;;1.33;;
8337;SDS011;4206;48.634;9.516;2022-09-03T04:55:36;1.30;;;1.20;;
8337;SDS011;4206;48.634;9.516;2022-09-03T04:58:03;1.30;;;1.20;;
8337;SDS011;4206;48.634;9.516;2022-09-03T05:00:29;4.27;;;1.53;;
8337;SDS011;4206;48.634;9.516;2022-09-03T05:02:55;3.17;;;1.30;;
8337;SDS011;4206;48.634;9.516;2022-09-03T05:05:24;3.60;;;1.53;;
8337;SDS011;4206;48.634;9.516;2022-09-03T05:07:50;1.63;;;1.03;;
8337;SDS011;4206;48.634;9.516;2022-09-03T05:10:17;1.73;;;1.40;;
8337;SDS011;4206;48.634;9.516;2022-09-03T05:12:46;4.50;;;1.47;;
8337;SDS011;4206;48.634;9.516;2022-09-03T05:15:13;1.37;;;1.27;;
8337;SDS011;4206;48.634;9.516;2022-09-03T05:17:39;2.97;;;1.40;;
8337;SDS011;4206;48.634;9.516;2022-09-03T05:20:05;2.80;;;1.60;;
8337;SDS011;4206;48.634;9.516;2022-09-03T05:22:33;3.87;;;1.73;;
8337;SDS011;4206;48.634;9.516;2022-09-03T05:24:59;3.73;;;1.53;;
8337;SDS011;4206;48.634;9.516;2022-09-03T05:27:25;1.67;;;1.57;;
8337;SDS011;4206;48.634;9.516;2022-09-03T05:29:50;1.70;;;1.07;;
8337;SDS011;4206;48.634;9.516;2022-09-03T05:32:16;2.97;;;1.80;;
8337;SDS011;4206;48.634;9.516;2022-09-03T05:34:42;2.73;;;1.60;;
8337;SDS011;4206;48.634;9.516;2022-09-03T05:37:08;9.90;;;1.63;;
8337;SDS011;4206;48.634;9.516;2022-09-03T05:39:35;4.60;;;1.47;;
8337;SDS011;4206;48.634;9.516;2022-09-03T05:42:01;4.73;;;1.50;;
8337;SDS011;4206;48.634;9.516;2022-09-03T05:44:27;2.27;;;1.53;;
8337;SDS011;4206;48.634;9.516;2022-09-03T05:46:53;2.93;;;1.83;;
8337;SDS011;4206;48.634;9.516;2022-09-03T05:49:19;3.50;;;1.57;;
8337;SDS011;4206;48.634;9.516;2022-09-03T05:51:45;2.87;;;1.50;;
8337;SDS011;4206;48.634;9.516;2022-09-03T05:54:10;3.87;;;1.73;;
8337;SDS011;4206;48.634;9.516;2022-09-03T05:56:37;1.67;;;1.37;;
8337;SDS011;4206;48.634;9.516;2022-09-03T05:59:04;1.80;;;1.27;;
8337;SDS011;4206;48.634;9.516;2022-09-03T06:01:35;2.43;;;1.33;;
8337;SDS011;4206;48.634;9.516;2022-09-03T06:04:04;2.17;;;1.00;;
8337;SDS011;4206;48.634;9.516;2022-09-03T06:06:32;3.43;;;1.27;;
8337;SDS011;4206;48.634;9.516;2022-09-03T06:09:00;1.87;;;1.60;;
8337;SDS011;4206;48.634;9.516;2022-09-03T06:11:29;1.43;;;1.33;;
8337;SDS011;4206;48.634;9.516;2022-09-03T06:13:57;2.63;;;1.53;;
8337;SDS011;4206;48.634;9.516;2022-09-03T06:16:25;1.40;;;1.30;;
8337;SDS011;4206;48.634;9.516;2022-09-03T06:18:51;4.37;;;1.43;;
8337;SDS011;4206;48.634;9.516;2022-09-03T06:21:18;3.23;;;1.23;;
8337;SDS011;4206;48.634;9.516;2022-09-03T06:23:47;4.40;;;1.37;;
8337;SDS011;4206;48.634;9.516;2022-09-03T06:26:15;1.60;;;1.47;;
8337;SDS011;4206;48.634;9.516;2022-09-03T06:28:42;3.03;;;1.50;;
8337;SDS011;4206;48.634;9.516;2022-09-03T06:31:09;2.10;;;1.30;;
8337;SDS011;4206;48.634;9.516;2022-09-03T06:33:37;1.70;;;1.60;;
8337;SDS011;4206;48.634;9.516;2022-09-03T06:36:05;1.90;;;1.20;;
8337;SDS011;4206;48.634;9.516;2022-09-03T06:38:32;1.40;;;1.30;;
8337;SDS011;4206;48.634;9.516;2022-09-03T06:41:01;6.67;;;1.67;;
8337;SDS011;4206;48.634;9.516;2022-09-03T06:43:29;1.90;;;1.27;;
8337;SDS011;4206;48.634;9.516;2022-09-03T06:45:58;2.10;;;1.30;;
8337;SDS011;4206;48.634;9.516;2022-09-03T06:48:26;1.60;;;1.50;;
8337;SDS011;4206;48.634;9.516;2022-09-03T06:50:53;2.70;;;1.77;;
8337;SDS011;4206;48.634;9.516;2022-09-03T06:53:23;2.37;;;1.67;;
8337;SDS011;4206;48.634;9.516;2022-09-03T06:55:53;1.93;;;1.73;;
8337;SDS011;4206;48.634;9.516;2022-09-03T06:58:20;1.90;;;1.73;;
8337;SDS011;4206;48.634;9.516;2022-09-03T07:00:47;1.70;;;1.60;;
8337;SDS011;4206;48.634;9.516;2022-09-03T07:03:14;2.83;;;2.10;;
8337;SDS011;4206;48.634;9.516;2022-09-03T07:05:41;2.83;;;1.90;;
8337;SDS011;4206;48.634;9.516;2022-09-03T07:08:08;1.67;;;1.47;;
8337;SDS011;4206;48.634;9.516;2022-09-03T07:10:36;2.03;;;1.60;;
8337;SDS011;4206;48.634;9.516;2022-09-03T07:13:03;2.97;;;1.93;;
8337;SDS011;4206;48.634;9.516;2022-09-03T07:15:31;2.23;;;1.50;;
8337;SDS011;4206;48.634;9.516;2022-09-03T07:17:57;3.67;;;1.50;;
8337;SDS011;4206;48.634;9.516;2022-09-03T07:20:23;2.80;;;1.97;;
8337;SDS011;4206;48.634;9.516;2022-09-03T07:22:49;1.87;;;1.70;;
8337;SDS011;4206;48.634;9.516;2022-09-03T07:25:18;4.53;;;2.10;;
8337;SDS011;4206;48.634;9.516;2022-09-03T07:27:43;5.37;;;1.90;;
8337;SDS011;4206;48.634;9.516;2022-09-03T07:30:09;9.20;;;1.90;;
8337;SDS011;4206;48.634;9.516;2022-09-03T07:32:35;1.87;;;1.70;;
8337;SDS011;4206;48.634;9.516;2022-09-03T07:35:04;2.43;;;1.53;;
8337;SDS011;4206;48.634;9.516;2022-09-03T07:37:31;2.43;;;2.10;;
8337;SDS011;4206;48.634;9.516;2022-09-03T07:39:57;2.00;;;1.80;;
8337;SDS011;4206;48.634;9.516;2022-09-03T07:42:23;2.57;;;2.30;;
8337;SDS011;4206;48.634;9.516;2022-09-03T07:44:51;4.20;;;1.90;;
8337;SDS011;4206;48.634;9.516;2022-09-03T07:47:16;2.37;;;1.70;;
8337;SDS011;4206;48.634;9.516;2022-09-03T07:49:44;3.23;;;1.60;;
8337;SDS011;4206;48.634;9.516;2022-09-03T07:52:09;2.00;;;1.80;;
8337;SDS011;4206;48.634;9.516;2022-09-03T07:54:35;1.87;;;1.13;;
8337;SDS011;4206;48.634;9.516;2022-09-03T07:57:00;1.90;;;1.50;;
8337;SDS011;4206;48.634;9.516;2022-09-03T07:59:26;3.47;;;1.90;;
8337;SDS011;4206;48.634;9.516;2022-09-03T08:01:52;3.23;;;1.50;;
8337;SDS011;4206;48.634;9.516;2022-09-03T08:04:18;2.73;;;1.50;;
8337;SDS011;4206;48.634;9.516;2022-09-03T08:06:45;1.47;;;1.23;;
8337;SDS011;4206;48.634;9.516;2022-09-03T08:09:12;2.13;;;1.17;;
8337;SDS011;4206;48.634;9.516;2022-09-03T08:11:38;1.57;;;1.47;;
8337;SDS011;4206;48.634;9.516;2022-09-03T08:14:07;2.27;;;1.40;;
8337;SDS011;4206;48.634;9.516;2022-09-03T08:16:35;3.13;;;1.37;;
8337;SDS011;4206;48.634;9.516;2022-09-03T08:19:02;3.63;;;2.17;;
8337;SDS011;4206;48.634;9.516;2022-09-03T08:21:29;1.73;;;1.47;;
8337;SDS011;4206;48.634;9.516;2022-09-03T08:23:55;3.00;;;1.53;;
8337;SDS011;4206;48.634;9.516;2022-09-03T08:26:27;2.80;;;2.10;;
8337;SDS011;4206;48.634;9.516;2022-09-03T08:28:56;2.23;;;1.90;;
8337;SDS011;4206;48.634;9.516;2022-09-03T08:31:22;1.90;;;1.73;;
8337;SDS011;4206;48.634;9.516;2022-09-03T08:33:49;3.90;;;1.87;;
8337;SDS011;4206;48.634;9.516;2022-09-03T08:36:19;7.40;;;2.20;;
8337;SDS011;4206;48.634;9.516;2022-09-03T08:38:47;3.30;;;2.30;;
8337;SDS011;4206;48.634;9.516;2022-09-03T08:41:16;1.53;;;1.43;;
8337;SDS011;4206;48.634;9.516;2022-09-03T08:46:36;1.77;;;1.57;;
8337;SDS011;4206;48.634;9.516;2022-09-03T08:49:13;2.27;;;2.07;;
8337;SDS011;4206;48.634;9.516;2022-09-03T08:51:42;2.13;;;1.87;;
8337;SDS011;4206;48.634;9.516;2022-09-03T08:54:10;2.93;;;1.73;;
8337;SDS011;4206;48.634;9.516;2022-09-03T08:56:38;4.90;;;1.80;;
8337;SDS011;4206;48.634;9.516;2022-09-03T08:59:06;3.63;;;2.07;;
8337;SDS011;4206;48.634;9.516;2022-09-03T09:01:39;7.00;;;2.03;;
8337;SDS011;4206;48.634;9.516;2022-09-03T09:04:19;3.97;;;1.87;;
8337;SDS011;4206;48.634;9.516;2022-09-03T09:23:07;2.97;;;1.90;;
8337;SDS011;4206;48.634;9.516;2022-09-03T09:25:43;3.17;;;1.60;;
8337;SDS011;4206;48.634;9.516;2022-09-03T09:30:44;2.30;;;1.77;;
8337;SDS011;4206;48.634;9.516;2022-09-03T09:33:13;3.97;;;1.57;;
8337;SDS011;4206;48.634;9.516;2022-09-03T09:35:39;2.93;;;2.03;;
8337;SDS011;4206;48.634;9.516;2022-09-03T09:38:07;3.40;;;1.53;;
8337;SDS011;4206;48.634;9.516;2022-09-03T09:40:35;5.13;;;2.23;;
8337;SDS011;4206;48.634;9.516;2022-09-03T09:43:03;4.50;;;2.67;;
8337;SDS011;4206;48.634;9.516;2022-09-03T09:45:29;4.05;;;1.27;;
8337;SDS011;4206;48.634;9.516;2022-09-03T09:47:58;2.65;;;1.50;;
8337;SDS011;4206;48.634;9.516;2022-09-03T09:50:25;1.70;;;1.58;;
8337;SDS011;4206;48.634;9.516;2022-09-03T09:58:21;2.72;;;1.83;;
8337;SDS011;4206;48.634;9.516;2022-09-03T10:03:39;3.65;;;1.70;;
8337;SDS011;4206;48.634;9.516;2022-09-03T10:06:25;1.60;;;1.50;;
8337;SDS011;4206;48.634;9.516;2022-09-03T10:09:10;1.80;;;1.70;;
8337;SDS011;4206;48.634;9.516;2022-09-03T10:11:40;2.05;;;1.50;;
8337;SDS011;4206;48.634;9.516;2022-09-03T10:14:11;4.38;;;1.52;;
8337;SDS011;4206;48.634;9.516;2022-09-03T10:16:44;1.65;;;1.20;;
8337;SDS011;4206;48.634;9.516;2022-09-03T10:19:16;1.70;;;1.60;;
8337;SDS011;4206;48.634;9.516;2022-09-03T10:24:25;2.17;;;1.23;;
8337;SDS011;4206;48.634;9.516;2022-09-03T10:26:58;1.67;;;1.58;;
8337;SDS011;4206;48.634;9.516;2022-09-03T10:29:24;1.83;;;1.73;;
8337;SDS011;4206;48.634;9.516;2022-09-03T10:34:34;2.00;;;1.50;;
8337;SDS011;4206;48.634;9.516;2022-09-03T10:37:10;1.63;;;1.40;;
8337;SDS011;4206;48.634;9.516;2022-09-03T10:45:19;1.98;;;1.52;;
8337;SDS011;4206;48.634;9.516;2022-09-03T10:50:20;2.00;;;1.70;;
8337;SDS011;4206;48.634;9.516;2022-09-03T11:01:01;2.10;;;1.33;;
8337;SDS011;4206;48.634;9.516;2022-09-03T11:03:42;2.90;;;1.80;;
8337;SDS011;4206;48.634;9.516;2022-09-03T11:06:15;5.43;;;1.60;;
8337;SDS011;4206;48.634;9.516;2022-09-03T11:08:50;3.70;;;1.53;;
8337;SDS011;4206;48.634;9.516;2022-09-03T11:11:20;3.60;;;1.83;;
8337;SDS011;4206;48.634;9.516;2022-09-03T11:13:55;1.60;;;1.50;;
8337;SDS011;4206;48.634;9.516;2022-09-03T11:16:30;1.87;;;1.77;;
8337;SDS011;4206;48.634;9.516;2022-09-03T11:19:01;1.47;;;1.37;;
8337;SDS011;4206;48.634;9.516;2022-09-03T11:21:30;4.60;;;1.83;;
8337;SDS011;4206;48.634;9.516;2022-09-03T11:24:01;3.20;;;1.40;;
8337;SDS011;4206;48.634;9.516;2022-09-03T11:26:33;3.50;;;1.60;;
8337;SDS011;4206;48.634;9.516;2022-09-03T11:29:05;2.10;;;1.90;;
8337;SDS011;4206;48.634;9.516;2022-09-03T11:34:31;4.53;;;1.77;;
8337;SDS011;4206;48.634;9.516;2022-09-03T11:39:44;1.50;;;1.40;;
8337;SDS011;4206;48.634;9.516;2022-09-03T11:42:24;1.60;;;1.50;;
8337;SDS011;4206;48.634;9.516;2022-09-03T11:44:51;1.93;;;1.50;;
8337;SDS011;4206;48.634;9.516;2022-09-03T11:49:45;2.30;;;2.00;;
8337;SDS011;4206;48.634;9.516;2022-09-03T11:52:23;3.73;;;1.60;;
8337;SDS011;4206;48.634;9.516;2022-09-03T11:54:54;1.73;;;1.60;;
8337;SDS011;4206;48.634;9.516;2022-09-03T11:57:22;2.13;;;1.80;;
8337;SDS011;4206;48.634;9.516;2022-09-03T11:59:48;2.47;;;1.63;;
8337;SDS011;4206;48.634;9.516;2022-09-03T12:02:19;3.40;;;2.20;;
8337;SDS011;4206;48.634;9.516;2022-09-03T12:09:47;3.07;;;2.40;;
8337;SDS011;4206;48.634;9.516;2022-09-03T12:20:37;2.90;;;2.20;;
8337;SDS011;4206;48.634;9.516;2022-09-03T12:23:03;4.70;;;2.10;;
8337;SDS011;4206;48.634;9.516;2022-09-03T12:25:28;4.67;;;2.23;;
8337;SDS011;4206;48.634;9.516;2022-09-03T12:27:54;8.53;;;2.50;;
8337;SDS011;4206;48.634;9.516;2022-09-03T12:30:21;2.67;;;1.60;;
8337;SDS011;4206;48.634;9.516;2022-09-03T12:32:48;0.80;;;0.67;;
8337;SDS011;4206;48.634;9.516;2022-09-03T12:35:17;1.33;;;0.87;;
8337;SDS011;4206;48.634;9.516;2022-09-03T12:37:45;4.07;;;0.90;;
8337;SDS011;4206;48.634;9.516;2022-09-03T12:40:19;3.30;;;0.80;;
8337;SDS011;4206;48.634;9.516;2022-09-03T12:42:47;0.70;;;0.70;;
8337;SDS011;4206;48.634;9.516;2022-09-03T12:45:13;0.90;;;0.50;;
8337;SDS011;4206;48.634;9.516;2022-09-03T12:47:43;1.93;;;1.03;;
8337;SDS011;4206;48.634;9.516;2022-09-03T12:50:11;1.00;;;0.90;;
8337;SDS011;4206;48.634;9.516;2022-09-03T12:52:43;5.50;;;1.20;;
8337;SDS011;4206;48.634;9.516;2022-09-03T12:57:59;5.23;;;1.77;;
8337;SDS011;4206;48.634;9.516;2022-09-03T13:00:31;1.70;;;0.70;;
8337;SDS011;4206;48.634;9.516;2022-09-03T13:05:31;2.80;;;1.10;;
8337;SDS011;4206;48.634;9.516;2022-09-03T13:08:00;1.97;;;1.13;;
8337;SDS011;4206;48.634;9.516;2022-09-03T13:10:32;2.70;;;1.17;;
8337;SDS011;4206;48.634;9.516;2022-09-03T13:13:06;3.80;;;1.03;;
8337;SDS011;4206;48.634;9.516;2022-09-03T13:15:54;1.03;;;0.67;;
8337;SDS011;4206;48.634;9.516;2022-09-03T13:18:24;1.53;;;0.83;;
8337;SDS011;4206;48.634;9.516;2022-09-03T13:23:52;3.00;;;0.70;;
8337;SDS011;4206;48.634;9.516;2022-09-03T13:29:28;4.70;;;1.17;;
8337;SDS011;4206;48.634;9.516;2022-09-03T13:34:53;1.03;;;0.80;;
8337;SDS011;4206;48.634;9.516;2022-09-03T13:37:25;2.23;;;0.90;;
8337;SDS011;4206;48.634;9.516;2022-09-03T13:39:53;2.77;;;0.60;;
8337;SDS011;4206;48.634;9.516;2022-09-03T13:47:44;2.83;;;0.93;;
8337;SDS011;4206;48.634;9.516;2022-09-03T13:50:32;2.80;;;1.00;;
8337;SDS011;4206;48.634;9.516;2022-09-03T13:56:06;1.47;;;0.60;;
8337;SDS011;4206;48.634;9.516;2022-09-03T13:58:45;1.67;;;0.93;;
8337;SDS011;4206;48.634;9.516;2022-09-03T14:01:22;2.70;;;0.80;;
8337;SDS011;4206;48.634;9.516;2022-09-03T14:04:02;1.73;;;1.03;;
8337;SDS011;4206;48.634;9.516;2022-09-03T14:06:40;2.10;;;1.13;;
8337;SDS011;4206;48.634;9.516;2022-09-03T14:09:19;1.97;;;1.00;;
8337;SDS011;4206;48.634;9.516;2022-09-03T14:11:51;1.60;;;0.60;;
8337;SDS011;4206;48.634;9.516;2022-09-03T14:20:26;0.97;;;0.50;;
8337;SDS011;4206;48.634;9.516;2022-09-03T14:25:51;1.60;;;0.50;;
8337;SDS011;4206;48.634;9.516;2022-09-03T14:28:30;1.37;;;0.50;;
8337;SDS011;4206;48.634;9.516;2022-09-03T14:33:38;0.53;;;0.40;;
8337;SDS011;4206;48.634;9.516;2022-09-03T14:36:10;0.60;;;0.40;;
8337;SDS011;4206;48.634;9.516;2022-09-03T14:38:41;0.63;;;0.40;;
8337;SDS011;4206;48.634;9.516;2022-09-03T14:41:30;1.67;;;0.70;;
8337;SDS011;4206;48.634;9.516;2022-09-03T14:44:20;1.20;;;0.60;;
8337;SDS011;4206;48.634;9.516;2022-09-03T14:49:43;1.07;;;0.30;;
8337;SDS011;4206;48.634;9.516;2022-09-03T15:03:15;0.63;;;0.63;;
8337;SDS011;4206;48.634;9.516;2022-09-03T15:11:02;0.50;;;0.30;;
8337;SDS011;4206;48.634;9.516;2022-09-03T15:13:47;0.80;;;0.40;;
8337;SDS011;4206;48.634;9.516;2022-09-03T15:23:55;2.53;;;0.50;;
8337;SDS011;4206;48.634;9.516;2022-09-03T15:26:29;1.27;;;0.33;;
8337;SDS011;4206;48.634;9.516;2022-09-03T15:31:51;0.47;;;0.33;;
8337;SDS011;4206;48.634;9.516;2022-09-03T15:37:15;0.60;;;0.47;;
8337;SDS011;4206;48.634;9.516;2022-09-03T15:39:46;0.60;;;0.40;;
8337;SDS011;4206;48.634;9.516;2022-09-03T15:42:29;1.00;;;0.27;;
8337;SDS011;4206;48.634;9.516;2022-09-03T15:44:56;0.90;;;0.30;;
8337;SDS011;4206;48.634;9.516;2022-09-03T15:49:58;0.70;;;0.40;;
8337;SDS011;4206;48.634;9.516;2022-09-03T16:00:16;0.70;;;0.30;;
8337;SDS011;4206;48.634;9.516;2022-09-03T16:02:45;1.13;;;0.60;;
8337;SDS011;4206;48.634;9.516;2022-09-03T16:05:20;0.80;;;0.70;;
8337;SDS011;4206;48.634;9.516;2022-09-03T16:08:05;1.17;;;1.00;;
8337;SDS011;4206;48.634;9.516;2022-09-03T16:15:59;1.00;;;0.50;;
8337;SDS011;4206;48.634;9.516;2022-09-03T16:18:32;0.50;;;0.30;;
8337;SDS011;4206;48.634;9.516;2022-09-03T16:21:10;0.60;;;0.40;;
8337;SDS011;4206;48.634;9.516;2022-09-03T16:28:58;1.10;;;0.40;;
8337;SDS011;4206;48.634;9.516;2022-09-03T16:37:17;1.40;;;0.57;;
8337;SDS011;4206;48.634;9.516;2022-09-03T16:42:28;0.70;;;0.40;;
8337;SDS011;4206;48.634;9.516;2022-09-03T17:11:58;1.73;;;0.40;;
8337;SDS011;4206;48.634;9.516;2022-09-03T17:14:36;1.17;;;0.60;;
8337;SDS011;4206;48.634;9.516;2022-09-03T17:17:26;0.80;;;0.67;;
8337;SDS011;4206;48.634;9.516;2022-09-03T17:19:58;0.77;;;0.70;;
8337;SDS011;4206;48.634;9.516;2022-09-03T17:25:03;0.50;;;0.47;;
8337;SDS011;4206;48.634;9.516;2022-09-03T17:33:37;1.20;;;0.83;;
8337;SDS011;4206;48.634;9.516;2022-09-03T17:36:24;0.80;;;0.80;;
8337;SDS011;4206;48.634;9.516;2022-09-03T17:49:26;1.43;;;0.70;;
8337;SDS011;4206;48.634;9.516;2022-09-03T17:54:41;1.13;;;0.60;;
8337;SDS011;4206;48.634;9.516;2022-09-03T17:57:17;2.13;;;0.90;;
8337;SDS011;4206;48.634;9.516;2022-09-03T17:59:55;0.57;;;0.50;;
8337;SDS011;4206;48.634;9.516;2022-09-03T18:02:30;0.50;;;0.47;;
8337;SDS011;4206;48.634;9.516;2022-09-03T18:05:21;0.80;;;0.60;;
8337;SDS011;4206;48.634;9.516;2022-09-03T18:16:34;1.47;;;1.00;;
8337;SDS011;4206;48.634;9.516;2022-09-03T18:19:07;1.67;;;0.80;;
8337;SDS011;4206;48.634;9.516;2022-09-03T18:21:42;2.10;;;0.93;;
8337;SDS011;4206;48.634;9.516;2022-09-03T18:24:29;4.70;;;0.80;;
8337;SDS011;4206;48.634;9.516;2022-09-03T18:27:20;1.50;;;0.90;;
8337;SDS011;4206;48.634;9.516;2022-09-03T18:30:08;1.67;;;0.97;;
8337;SDS011;4206;48.634;9.516;2022-09-03T18:32:50;2.70;;;0.90;;
8337;SDS011;4206;48.634;9.516;2022-09-03T18:35:31;1.23;;;0.80;;
8337;SDS011;4206;48.634;9.516;2022-09-03T18:38:12;1.60;;;0.60;;
8337;SDS011;4206;48.634;9.516;2022-09-03T18:41:04;1.53;;;0.97;;
8337;SDS011;4206;48.634;9.516;2022-09-03T18:47:22;2.43;;;0.80;;
8337;SDS011;4206;48.634;9.516;2022-09-03T18:50:17;1.90;;;0.90;;
8337;SDS011;4206;48.634;9.516;2022-09-03T18:53:09;0.93;;;0.80;;
8337;SDS011;4206;48.634;9.516;2022-09-03T18:56:01;1.37;;;1.07;;
8337;SDS011;4206;48.634;9.516;2022-09-03T18:59:02;2.00;;;1.33;;
8337;SDS011;4206;48.634;9.516;2022-09-03T19:01:53;1.60;;;0.93;;
8337;SDS011;4206;48.634;9.516;2022-09-03T19:04:40;4.40;;;1.20;;
8337;SDS011;4206;48.634;9.516;2022-09-03T19:10:33;1.13;;;1.03;;
8337;SDS011;4206;48.634;9.516;2022-09-03T19:13:31;2.03;;;1.00;;
8337;SDS011;4206;48.634;9.516;2022-09-03T19:22:22;2.30;;;0.90;;
8337;SDS011;4206;48.634;9.516;2022-09-03T19:25:11;0.83;;;0.83;;
8337;SDS011;4206;48.634;9.516;2022-09-03T19:50:32;1.90;;;1.10;;
8337;SDS011;4206;48.634;9.516;2022-09-03T19:53:17;2.10;;;1.03;;
8337;SDS011;4206;48.634;9.516;2022-09-03T19:56:01;2.33;;;1.17;;
8337;SDS011;4206;48.634;9.516;2022-09-03T19:58:47;2.03;;;0.77;;
8337;SDS011;4206;48.634;9.516;2022-09-03T20:01:34;1.33;;;1.00;;
8337;SDS011;4206;48.634;9.516;2022-09-03T20:04:16;5.17;;;1.00;;
8337;SDS011;4206;48.634;9.516;2022-09-03T20:07:00;1.40;;;1.30;;
8337;SDS011;4206;48.634;9.516;2022-09-03T20:09:44;1.63;;;1.07;;
8337;SDS011;4206;48.634;9.516;2022-09-03T20:12:28;0.90;;;0.63;;
8337;SDS011;4206;48.634;9.516;2022-09-03T20:14:58;1.83;;;1.27;;
8337;SDS011;4206;48.634;9.516;2022-09-03T20:22:52;2.70;;;1.37;;
8337;SDS011;4206;48.634;9.516;2022-09-03T20:28:17;1.20;;;1.03;;
8337;SDS011;4206;48.634;9.516;2022-09-03T20:30:46;2.10;;;1.10;;
8337;SDS011;4206;48.634;9.516;2022-09-03T20:41:36;1.27;;;1.17;;
8337;SDS011;4206;48.634;9.516;2022-09-03T20:46:40;2.73;;;1.80;;
8337;SDS011;4206;48.634;9.516;2022-09-03T20:52:17;1.97;;;1.50;;
8337;SDS011;4206;48.634;9.516;2022-09-03T20:54:52;3.57;;;1.80;;
8337;SDS011;4206;48.634;9.516;2022-09-03T21:00:17;2.30;;;1.40;;
8337;SDS011;4206;48.634;9.516;2022-09-03T21:02:48;1.57;;;1.20;;
8337;SDS011;4206;48.634;9.516;2022-09-03T21:05:37;1.60;;;1.50;;
8337;SDS011;4206;48.634;9.516;2022-09-03T21:08:11;3.17;;;1.53;;
8337;SDS011;4206;48.634;9.516;2022-09-03T21:10:46;2.30;;;1.67;;
8337;SDS011;4206;48.634;9.516;2022-09-03T21:13:25;6.90;;;2.00;;
8337;SDS011;4206;48.634;9.516;2022-09-03T21:16:20;2.20;;;1.67;;
8337;SDS011;4206;48.634;9.516;2022-09-03T21:18:58;2.33;;;1.70;;
8337;SDS011;4206;48.634;9.516;2022-09-03T21:21:28;3.00;;;2.20;;
8337;SDS011;4206;48.634;9.516;2022-09-03T21:24:10;1.63;;;1.53;;
8337;SDS011;4206;48.634;9.516;2022-09-03T21:26:42;3.03;;;2.30;;
8337;SDS011;4206;48.634;9.516;2022-09-03T21:29:16;4.13;;;2.30;;
8337;SDS011;4206;48.634;9.516;2022-09-03T21:34:40;4.00;;;2.23;;
8337;SDS011;4206;48.634;9.516;2022-09-03T21:37:14;1.70;;;1.60;;